createdAt,value
2023-08-07T00:01:34.963Z,98863.20
2023-08-07T00:05:38.551Z,98872.70
2023-08-07T00:09:42.303Z,98876.79
2023-08-07T00:13:47.501Z,98879.76
2023-08-07T00:17:50.661Z,98882.95
2023-08-07T00:22:46.473Z,98884.86
2023-08-07T00:26:52.418Z,98883.30
2023-08-07T00:31:03.036Z,98880.16
2023-08-07T00:35:09.662Z,98885.89
2023-08-07T00:39:15.031Z,98895.84
2023-08-07T00:43:18.225Z,98900.07
2023-08-07T00:47:21.598Z,98897.79
2023-08-07T00:51:25.460Z,98903.61
2023-08-07T00:55:29.978Z,98906.60
2023-08-07T00:59:33.539Z,98909.52
2023-08-07T01:03:36.707Z,98908.54
2023-08-07T01:07:40.196Z,98906.55
2023-08-07T01:12:33.684Z,98903.92
2023-08-07T01:16:54.931Z,98903.96
2023-08-07T01:20:58.829Z,98900.08
2023-08-07T01:25:02.182Z,98899.61
2023-08-07T01:29:36.518Z,98899.23
2023-08-07T01:33:52.785Z,98893.16
2023-08-07T01:37:57.511Z,98892.79
2023-08-07T01:42:02.364Z,98894.48
2023-08-07T01:46:09.680Z,98897.19
2023-08-07T01:50:13.284Z,98899.38
2023-08-07T01:55:08.887Z,98896.20
2023-08-07T01:59:12.459Z,98892.94
2023-08-07T02:03:15.764Z,98887.98
2023-08-07T02:07:20.339Z,98880.10
2023-08-07T02:11:23.943Z,98878.80
2023-08-07T02:15:27.063Z,98883.49
2023-08-07T02:19:32.677Z,98882.79
2023-08-07T02:23:37.776Z,98889.13
2023-08-07T02:27:43.109Z,98885.30
2023-08-07T02:31:46.266Z,98885.61
2023-08-07T02:35:54.475Z,98889.80
2023-08-07T02:39:57.570Z,98888.13
2023-08-07T02:44:05.352Z,98884.98
2023-08-07T02:48:08.660Z,98886.17
2023-08-07T02:52:13.225Z,98890.66
2023-08-07T02:56:16.784Z,98890.98
2023-08-07T03:00:21.696Z,98887.34
2023-08-07T03:04:26.307Z,98880.77
2023-08-07T03:08:29.690Z,98886.80
2023-08-07T03:12:34.204Z,98886.14
2023-08-07T03:16:42.332Z,98887.01
2023-08-07T03:20:45.516Z,98887.35
2023-08-07T03:24:49.771Z,98904.55
2023-08-07T03:28:53.870Z,98909.18
2023-08-07T03:32:57.075Z,98912.17
2023-08-07T03:37:04.686Z,98913.32
2023-08-07T03:41:10.433Z,98913.70
2023-08-07T03:45:13.852Z,98915.34
2023-08-07T03:49:17.216Z,98923.17
2023-08-07T03:53:22.368Z,98926.52
2023-08-07T03:57:26.317Z,98928.38
2023-08-07T04:01:29.657Z,98926.11
2023-08-07T04:05:35.088Z,98927.95
2023-08-07T04:10:31.229Z,98938.17
2023-08-07T04:14:34.358Z,98944.41
2023-08-07T04:18:49.516Z,98949.98
2023-08-07T04:22:52.713Z,98961.63
2023-08-07T04:26:58.463Z,98962.93
2023-08-07T04:31:28.942Z,98964.80
2023-08-07T04:35:33.257Z,98967.85
2023-08-07T04:39:38.811Z,98969.34
2023-08-07T04:43:46.000Z,98969.79
2023-08-07T04:47:49.146Z,98970.17
2023-08-07T04:51:55.161Z,98975.98
2023-08-07T04:55:58.581Z,98978.31
2023-08-07T05:00:01.982Z,98982.95
2023-08-07T05:04:10.310Z,98983.34
2023-08-07T05:08:15.707Z,98988.01
2023-08-07T05:12:18.865Z,98991.00
2023-08-07T05:16:56.100Z,98989.76
2023-08-07T05:20:59.364Z,98985.85
2023-08-07T05:25:02.458Z,98986.48
2023-08-07T05:29:05.653Z,98991.58
2023-08-07T05:33:08.854Z,98997.34
2023-08-07T05:37:12.573Z,99004.94
2023-08-07T05:41:15.870Z,99010.15
2023-08-07T05:45:27.542Z,99014.52
2023-08-07T05:49:30.987Z,99016.38
2023-08-07T05:53:38.709Z,99019.25
2023-08-07T05:57:44.051Z,99018.73
2023-08-07T06:01:47.376Z,99018.47
2023-08-07T06:05:52.101Z,99020.35
2023-08-07T06:10:00.632Z,99024.10
2023-08-07T06:14:04.073Z,99026.48
2023-08-07T06:18:07.533Z,99032.48
2023-08-07T06:22:13.126Z,99035.86
2023-08-07T06:26:16.800Z,99035.66
2023-08-07T06:30:20.019Z,99038.39
2023-08-07T06:34:23.429Z,99042.76
2023-08-07T06:38:27.399Z,99044.54
2023-08-07T06:42:30.938Z,99047.25
2023-08-07T06:46:34.147Z,99052.05
2023-08-07T06:50:42.580Z,99051.98
2023-08-07T06:54:45.976Z,99052.51
2023-08-07T06:58:51.657Z,99060.25
2023-08-07T07:02:55.669Z,99068.81
2023-08-07T07:07:00.270Z,99073.98
2023-08-07T07:11:06.171Z,99073.88
2023-08-07T07:15:10.898Z,99073.23
2023-08-07T07:19:14.402Z,99071.74
2023-08-07T07:23:17.666Z,99075.48
2023-08-07T07:27:23.125Z,99071.23
2023-08-07T07:31:29.243Z,99081.06
2023-08-07T07:35:42.364Z,99080.75
2023-08-07T07:39:45.571Z,99088.08
2023-08-07T07:43:49.087Z,99092.88
2023-08-07T07:48:09.807Z,99098.73
2023-08-07T07:52:13.518Z,99109.16
2023-08-07T07:56:19.081Z,99110.39
2023-08-07T08:00:30.153Z,99113.87
2023-08-07T08:04:35.316Z,99116.27
2023-08-07T08:08:38.728Z,99110.34
2023-08-07T08:12:44.269Z,99114.49
2023-08-07T08:16:47.923Z,99116.58
2023-08-07T08:20:51.075Z,99120.27
2023-08-07T08:25:47.028Z,99119.18
2023-08-07T08:29:50.181Z,99122.06
2023-08-07T08:33:54.168Z,99126.35
2023-08-07T08:37:57.624Z,99126.68
2023-08-07T08:42:01.084Z,99129.06
2023-08-07T08:46:06.733Z,99127.34
2023-08-07T08:50:16.436Z,99141.06
2023-08-07T09:08:16.367Z,99154.22
2023-08-07T09:16:50.203Z,99169.30
2023-08-07T09:20:53.353Z,99170.95
2023-08-07T09:24:57.370Z,99174.91
2023-08-07T09:29:01.091Z,99170.52
2023-08-07T09:33:04.722Z,99179.75
2023-08-07T09:37:09.836Z,99186.12
2023-08-07T09:41:13.377Z,99184.98
2023-08-07T09:45:35.931Z,99178.34
2023-08-07T09:49:43.249Z,99186.23
2023-08-07T09:53:49.136Z,99176.48
2023-08-07T09:57:53.246Z,99180.61
2023-08-07T10:01:56.851Z,99174.81
2023-08-07T10:06:00.386Z,99176.13
2023-08-07T10:10:05.865Z,99182.17
2023-08-07T10:14:15.112Z,99184.64
2023-08-07T10:18:18.165Z,99190.96
2023-08-07T10:22:21.508Z,99181.73
2023-08-07T10:26:25.734Z,99185.56
2023-08-07T10:30:30.766Z,99196.50
2023-08-07T10:34:52.573Z,99197.26
2023-08-07T10:39:08.742Z,99191.52
2023-08-07T10:43:18.833Z,99182.35
2023-08-07T10:47:57.630Z,99179.50
2023-08-07T10:52:05.261Z,99180.59
2023-08-07T10:57:03.598Z,99184.70
2023-08-07T11:01:23.668Z,99190.29
2023-08-07T11:05:27.180Z,99194.89
2023-08-07T11:09:34.962Z,99182.63
2023-08-07T11:13:38.091Z,99181.31
2023-08-07T11:17:42.483Z,99183.84
2023-08-07T11:21:45.905Z,99190.31
2023-08-07T11:25:50.577Z,99221.17
2023-08-07T11:29:54.772Z,99242.77
2023-08-07T11:33:59.547Z,99245.73
2023-08-07T11:38:02.757Z,99256.14
2023-08-07T11:42:07.517Z,99259.23
2023-08-07T11:46:12.225Z,99263.18
2023-08-07T11:50:16.134Z,99250.06
2023-08-07T11:54:22.252Z,99241.99
2023-08-07T11:58:26.789Z,99235.81
2023-08-07T12:02:29.818Z,99231.32
2023-08-07T12:06:34.973Z,99230.39
2023-08-07T12:10:38.136Z,99243.09
2023-08-07T12:14:42.870Z,99249.65
2023-08-07T12:18:47.597Z,99256.34
2023-08-07T12:22:50.948Z,99264.73
2023-08-07T12:26:54.270Z,99279.36
2023-08-07T12:30:58.055Z,99290.43
2023-08-07T12:39:08.344Z,99291.25
2023-08-07T12:43:11.741Z,99292.92
2023-08-07T12:47:15.779Z,99285.81
2023-08-07T12:51:19.199Z,99272.54
2023-08-07T12:55:24.766Z,99270.99
2023-08-07T12:59:27.767Z,99278.16
2023-08-07T13:03:31.078Z,99279.14
2023-08-07T13:07:34.201Z,99281.37
2023-08-07T13:11:37.311Z,99271.95
2023-08-07T13:15:40.340Z,99269.14
2023-08-07T13:19:43.552Z,99263.13
2023-08-07T13:23:46.582Z,99273.73
2023-08-07T13:27:56.053Z,99279.66
2023-08-07T13:31:59.331Z,99292.22
2023-08-07T13:37:19.363Z,99301.30
2023-08-07T13:41:22.430Z,99313.36
2023-08-07T13:45:25.604Z,99306.11
2023-08-07T13:49:28.629Z,99301.29
2023-08-07T13:53:31.952Z,99306.45
2023-08-07T13:57:35.366Z,99303.83
2023-08-07T14:01:39.803Z,99302.85
2023-08-07T14:05:42.999Z,99306.17
2023-08-07T14:09:46.310Z,99303.30
2023-08-07T14:13:49.415Z,99310.86
2023-08-07T14:17:53.541Z,99321.34
2023-08-07T14:21:56.507Z,99319.91
2023-08-07T14:25:59.641Z,99326.86
2023-08-07T14:30:31.935Z,99320.42
2023-08-07T14:34:35.518Z,99323.16
2023-08-07T14:38:39.052Z,99328.79
2023-08-07T14:53:07.348Z,99313.80
2023-08-07T14:57:11.077Z,99321.64
2023-08-07T15:01:14.501Z,99325.29
2023-08-07T15:05:18.172Z,99314.27
2023-08-07T15:09:21.899Z,99311.34
2023-08-07T15:13:26.019Z,99313.11
2023-08-07T15:17:29.610Z,99312.20
2023-08-07T15:21:33.067Z,99314.04
2023-08-07T15:25:38.945Z,99317.26
2023-08-07T15:29:46.100Z,99323.04
2023-08-07T15:33:52.124Z,99321.65
2023-08-07T15:37:55.535Z,99327.89
2023-08-07T15:41:59.101Z,99324.58
2023-08-07T15:46:02.703Z,99321.38
2023-08-07T15:50:06.915Z,99333.61
2023-08-07T15:54:10.604Z,99344.23
2023-08-07T15:58:15.010Z,99357.66
2023-08-07T16:02:18.397Z,99377.39
2023-08-07T16:06:22.997Z,99389.69
2023-08-07T16:10:27.667Z,99377.42
2023-08-07T16:14:35.028Z,99388.52
2023-08-07T16:18:39.382Z,99393.09
2023-08-07T16:22:45.250Z,99381.54
2023-08-07T16:26:48.690Z,99397.89
2023-08-07T16:30:52.332Z,99404.56
2023-08-07T16:34:55.692Z,99405.67
2023-08-07T16:38:59.232Z,99420.25
2023-08-07T16:43:06.376Z,99420.50
2023-08-07T16:47:10.092Z,99425.34
2023-08-07T16:51:16.298Z,99430.29
2023-08-07T16:55:20.320Z,99429.95
2023-08-07T16:59:24.430Z,99436.89
2023-08-07T17:03:27.885Z,99442.33
2023-08-07T17:07:31.433Z,99438.50
2023-08-07T17:11:35.805Z,99441.23
2023-08-07T17:15:39.289Z,99443.16
2023-08-07T17:19:42.803Z,99443.97
2023-08-07T17:23:46.172Z,99447.31
2023-08-07T17:27:49.513Z,99447.80
2023-08-07T17:31:55.030Z,99453.58
2023-08-07T17:35:58.474Z,99455.98
2023-08-07T17:40:01.870Z,99456.31
2023-08-07T17:44:05.895Z,99463.90
2023-08-07T17:48:09.223Z,99472.61
2023-08-07T17:52:13.775Z,99479.86
2023-08-07T17:56:17.208Z,99480.83
2023-08-07T18:00:20.635Z,99482.89
2023-08-07T18:04:23.974Z,99487.38
2023-08-07T18:08:27.568Z,99498.92
2023-08-07T18:12:31.056Z,99503.48
2023-08-07T18:16:34.339Z,99509.06
2023-08-07T18:20:37.730Z,99512.69
2023-08-07T18:24:42.024Z,99524.10
2023-08-07T18:28:45.504Z,99524.60
2023-08-07T18:32:50.587Z,99527.48
2023-08-07T18:36:55.366Z,99532.33
2023-08-07T18:41:01.394Z,99534.23
2023-08-07T18:45:05.258Z,99533.05
2023-08-07T18:49:08.886Z,99536.67
2023-08-07T18:53:15.234Z,99545.58
2023-08-07T18:57:23.920Z,99552.02
2023-08-07T19:01:28.944Z,99554.86
2023-08-07T19:05:32.768Z,99560.34
2023-08-07T19:09:37.607Z,99563.58
2023-08-07T19:13:42.716Z,99569.81
2023-08-07T19:17:46.416Z,99584.42
2023-08-07T19:21:52.579Z,99581.47
2023-08-07T19:25:55.910Z,99583.70
2023-08-07T19:30:00.016Z,99588.71
2023-08-07T19:34:03.461Z,99593.70
2023-08-07T19:38:06.830Z,99601.02
2023-08-07T19:42:10.139Z,99608.13
2023-08-07T19:46:13.429Z,99610.11
2023-08-07T19:50:17.314Z,99620.85
2023-08-07T19:54:20.711Z,99621.90
2023-08-07T19:58:23.961Z,99624.39
2023-08-07T20:02:27.494Z,99627.01
2023-08-07T20:06:30.837Z,99638.76
2023-08-07T20:10:34.278Z,99641.95
2023-08-07T20:14:38.009Z,99652.08
2023-08-07T20:18:41.310Z,99645.37
2023-08-07T20:22:44.617Z,99651.29
2023-08-07T20:26:48.716Z,99656.16
2023-08-07T20:30:54.066Z,99659.65
2023-08-07T20:35:00.548Z,99662.02
2023-08-07T20:39:10.857Z,99670.80
2023-08-07T20:43:21.851Z,99676.35
2023-08-07T20:47:27.439Z,99674.12
2023-08-07T20:51:32.587Z,99676.55
2023-08-07T20:55:37.292Z,99682.13
2023-08-07T20:59:41.104Z,99685.51
2023-08-07T21:03:45.294Z,99689.02
2023-08-07T21:07:49.222Z,99695.36
2023-08-07T21:11:54.095Z,99695.71
2023-08-07T21:15:57.919Z,99699.23
2023-08-07T21:20:04.659Z,99696.76
2023-08-07T21:24:13.179Z,99704.55
2023-08-07T21:28:17.168Z,99703.26
2023-08-07T21:32:20.451Z,99704.42
2023-08-07T21:36:23.921Z,99710.93
2023-08-07T21:40:27.132Z,99700.06
2023-08-07T21:44:30.483Z,99699.31
2023-08-07T21:48:33.800Z,99710.11
2023-08-07T21:52:37.757Z,99713.60
2023-08-07T21:56:43.685Z,99720.10
2023-08-07T22:00:50.240Z,99724.35
2023-08-07T22:04:54.215Z,99727.66
2023-08-07T22:08:58.192Z,99732.36
2023-08-07T22:13:02.342Z,99735.98
2023-08-07T22:17:08.126Z,99736.77
2023-08-07T22:21:13.334Z,99740.98
2023-08-07T22:25:16.985Z,99736.60
2023-08-07T22:29:20.621Z,99746.61
2023-08-07T22:33:24.592Z,99755.62
2023-08-07T22:43:35.830Z,99754.18
2023-08-07T22:47:41.181Z,99749.04
2023-08-07T22:51:45.205Z,99755.23
2023-08-07T23:02:11.399Z,99764.94
2023-08-07T23:06:15.239Z,99774.10
2023-08-07T23:10:19.398Z,99778.29
2023-08-07T23:14:23.159Z,99780.70
2023-08-07T23:18:26.866Z,99770.80
2023-08-07T23:22:30.851Z,99771.54
2023-08-07T23:26:35.233Z,99770.19
2023-08-07T23:30:38.589Z,99773.70
2023-08-07T23:34:42.030Z,99778.31
2023-08-07T23:38:45.574Z,99771.55
2023-08-07T23:42:49.051Z,99776.45
2023-08-07T23:46:52.697Z,99782.38
2023-08-07T23:50:56.809Z,99782.23
2023-08-07T23:55:00.321Z,99780.38
2023-08-07T23:59:04.187Z,99780.75
